Time;durP1;ratioP1;P1;durP2;ratioP2;P2;SDS_P1;SDS_P2;PMS_P1;PMS_P2;Temp;Humidity;BMP_temperature;BMP_pressure;BME280_temperature;BME280_humidity;BME280_pressure;Samples;Min_cycle;Max_cycle;Signal;HPM_P1;HPM_P2
2022/04/11 00:01:10;;;;;;;;;2.25;2.25;;;;;9.67;53.01;101350.38;5034067;28;46063;-71
2022/04/11 00:03:36;;;;;;;;;6.00;3.75;;;;;9.65;52.72;101352.16;5034055;28;46425;-70
2022/04/11 00:06:01;;;;;;;;;6.00;5.00;;;;;9.62;52.83;101347.03;5026625;28;45405;-71
2022/04/11 00:08:26;;;;;;;;;5.50;3.50;;;;;9.59;53.03;101355.81;5027865;28;45283;-70
2022/04/11 00:10:52;;;;;;;;;3.50;2.50;;;;;9.56;52.96;101345.44;5022473;28;46362;-71
2022/04/11 00:13:17;;;;;;;;;2.75;2.75;;;;;9.52;53.10;101342.94;5034286;28;46026;-70
2022/04/11 00:15:43;;;;;;;;;3.00;3.00;;;;;9.51;53.34;101349.97;5021982;28;45436;-70
2022/04/11 00:18:08;;;;;;;;;6.75;3.00;;;;;9.50;53.49;101347.34;5032988;28;45400;-70
2022/04/11 00:20:34;;;;;;;;;5.00;3.50;;;;;9.46;53.56;101343.97;5033441;28;46051;-70
2022/04/11 00:22:59;;;;;;;;;3.50;3.50;;;;;9.44;53.54;101342.28;5030711;28;45539;-71
2022/04/11 00:25:24;;;;;;;;;6.75;4.00;;;;;9.42;53.35;101342.34;5032951;28;45281;-70
2022/04/11 00:27:52;;;;;;;;;3.25;2.00;;;;;9.40;53.86;101336.28;5034548;28;45354;-70
2022/04/11 00:30:18;;;;;;;;;7.50;5.00;;;;;9.39;53.54;101334.53;5021723;28;46210;-71
2022/04/11 00:32:46;;;;;;;;;2.00;2.00;;;;;9.37;53.98;101331.13;5024258;28;45573;-71
2022/04/11 00:35:12;;;;;;;;;6.00;3.50;;;;;9.35;54.06;101330.31;5029247;28;45531;-70
2022/04/11 00:37:38;;;;;;;;;3.00;2.50;;;;;9.31;54.37;101320.81;5032766;28;45585;-71
2022/04/11 00:40:05;;;;;;;;;5.00;4.25;;;;;9.30;54.08;101322.56;5017952;28;45480;-70
2022/04/11 00:42:31;;;;;;;;;3.00;3.00;;;;;9.26;54.08;101314.84;5029452;28;45317;-70
2022/04/11 00:44:57;;;;;;;;;3.00;3.00;;;;;9.25;54.12;101306.09;5028054;28;45580;-70
2022/04/11 00:47:22;;;;;;;;;6.25;5.00;;;;;9.21;54.31;101301.00;5029179;28;45421;-70
2022/04/11 00:49:48;;;;;;;;;3.00;3.00;;;;;9.18;54.49;101298.44;5026324;28;46115;-70
2022/04/11 00:52:15;;;;;;;;;3.75;3.00;;;;;9.14;54.43;101279.31;5031227;28;45343;-70
2022/04/11 00:54:42;;;;;;;;;3.25;3.25;;;;;9.11;54.78;101280.25;5025203;28;45504;-70
2022/04/11 00:57:09;;;;;;;;;3.00;3.00;;;;;9.08;54.74;101274.22;5027636;28;45463;-70
2022/04/11 00:59:35;;;;;;;;;4.50;3.00;;;;;9.06;54.75;101276.06;5006976;28;45425;-71
2022/04/11 01:02:04;;;;;;;;;3.00;3.00;;;;;9.03;54.87;101274.38;5018136;28;45461;-70
2022/04/11 01:04:29;;;;;;;;;7.00;2.75;;;;;9.01;54.79;101270.94;5033179;28;45393;-70
2022/04/11 01:06:56;;;;;;;;;6.00;4.00;;;;;9.00;54.52;101265.75;5028650;28;45447;-70
2022/04/11 01:09:23;;;;;;;;;3.25;3.25;;;;;8.97;54.66;101257.94;5023141;28;46437;-70
2022/04/11 01:11:49;;;;;;;;;7.50;3.50;;;;;8.94;54.89;101256.28;5029322;28;45900;-70
2022/04/11 01:14:14;;;;;;;;;3.75;3.75;;;;;8.92;55.42;101258.06;5023639;28;45820;-70
2022/04/11 01:16:39;;;;;;;;;6.50;3.50;;;;;8.89;54.88;101251.16;5042149;28;45575;-70
2022/04/11 01:19:05;;;;;;;;;4.50;4.25;;;;;8.86;55.09;101247.75;5020193;28;45517;-70
2022/04/11 01:21:31;;;;;;;;;3.00;3.00;;;;;8.83;55.38;101247.88;5020710;28;45474;-70
2022/04/11 01:23:57;;;;;;;;;3.00;3.00;;;;;8.80;55.37;101243.56;5017559;28;45630;-70
2022/04/11 01:26:22;;;;;;;;;6.00;4.25;;;;;8.77;55.17;101235.78;5019869;28;45473;-71
2022/04/11 01:28:48;;;;;;;;;3.00;3.00;;;;;8.75;55.18;101227.09;5029160;28;45902;-70
2022/04/11 01:31:15;;;;;;;;;3.00;3.00;;;;;8.74;55.25;101233.25;5031708;28;46038;-70
2022/04/11 01:33:41;;;;;;;;;2.75;2.75;;;;;8.69;55.78;101227.25;5033494;28;45421;-70
2022/04/11 01:36:07;;;;;;;;;6.25;4.75;;;;;8.67;55.54;101223.84;5026328;28;45499;-70
2022/04/11 01:38:32;;;;;;;;;6.25;3.50;;;;;8.64;55.16;101216.06;5026499;28;46040;-70
2022/04/11 01:40:58;;;;;;;;;2.25;2.25;;;;;8.61;55.33;101219.63;5029853;28;45445;-70
2022/04/11 01:43:24;;;;;;;;;4.50;2.75;;;;;8.59;55.64;101213.56;5023862;28;45370;-70
2022/04/11 01:45:50;;;;;;;;;8.75;3.00;;;;;8.58;55.53;101210.97;5022991;28;45452;-70
2022/04/11 01:48:16;;;;;;;;;5.00;2.00;;;;;8.56;55.52;101213.66;5032010;28;46106;-70
2022/04/11 01:50:42;;;;;;;;;3.50;3.50;;;;;8.53;55.51;101208.47;5030723;28;45494;-70
2022/04/11 01:53:11;;;;;;;;;4.25;2.00;;;;;8.52;55.38;101204.16;5032030;28;45385;-70
2022/04/11 01:55:37;;;;;;;;;0.00;0.00;;;;;8.50;55.34;101203.31;5035370;28;45651;-70
2022/04/11 01:58:04;;;;;;;;;3.00;3.00;;;;;8.48;55.09;101199.88;5020353;28;46058;-70
2022/04/11 02:00:31;;;;;;;;;5.00;5.00;;;;;8.47;55.48;101195.56;5030982;28;45488;-70
2022/04/11 02:03:00;;;;;;;;;2.75;2.75;;;;;8.45;55.47;101197.34;5032015;28;45573;-70
2022/04/11 02:05:27;;;;;;;;;1.75;1.75;;;;;8.43;55.03;101196.53;5026413;28;45421;-70
2022/04/11 02:07:53;;;;;;;;;2.00;2.00;;;;;8.42;55.37;101188.72;5003002;28;46546;-70
2022/04/11 02:10:18;;;;;;;;;2.50;2.00;;;;;8.40;55.61;101186.13;5033585;28;45338;-70
2022/04/11 02:12:44;;;;;;;;;4.00;2.00;;;;;8.40;55.59;101180.88;5029886;28;45494;-70
2022/04/11 02:15:10;;;;;;;;;4.25;2.00;;;;;8.38;55.39;101177.47;5031806;28;45402;-71
2022/04/11 02:17:35;;;;;;;;;2.00;1.00;;;;;8.38;55.09;101187.94;5031216;28;45351;-71
2022/04/11 02:20:00;;;;;;;;;1.50;1.50;;;;;8.37;55.53;101183.59;5022808;28;45765;-71
2022/04/11 02:22:26;;;;;;;;;3.00;1.75;;;;;8.38;55.50;101180.09;5036225;28;45839;-71
2022/04/11 02:24:51;;;;;;;;;3.00;2.25;;;;;8.36;55.28;101174.91;5026164;28;45412;-71
2022/04/11 02:27:16;;;;;;;;;1.00;1.00;;;;;8.37;55.12;101170.50;5026682;28;45625;-71
2022/04/11 02:29:42;;;;;;;;;2.00;2.00;;;;;8.38;55.17;101168.75;5026625;28;45393;-71
2022/04/11 02:32:07;;;;;;;;;1.75;1.75;;;;;8.39;55.29;101168.69;5026906;28;45512;-71
2022/04/11 02:34:33;;;;;;;;;3.00;2.50;;;;;8.40;54.96;101169.56;5025581;28;45393;-71
2022/04/11 02:36:58;;;;;;;;;5.25;4.50;;;;;8.41;54.48;101161.69;5027973;28;45293;-71
2022/04/11 02:39:23;;;;;;;;;5.00;3.00;;;;;8.40;54.68;101159.94;5031380;28;45420;-71
2022/04/11 02:41:49;;;;;;;;;2.50;2.00;;;;;8.40;54.94;101159.94;5033081;28;45408;-71
2022/04/11 02:44:14;;;;;;;;;2.75;2.75;;;;;8.41;54.79;101159.06;5030383;28;45720;-71
2022/04/11 02:46:42;;;;;;;;;3.00;3.00;;;;;8.39;54.53;101162.59;5033702;28;46190;-71
2022/04/11 02:49:07;;;;;;;;;2.75;2.00;;;;;8.38;54.70;101161.75;5033002;28;46074;-71
2022/04/11 02:51:33;;;;;;;;;5.50;5.50;;;;;8.36;54.94;101159.19;5023183;28;45445;-71
2022/04/11 02:53:58;;;;;;;;;4.00;2.00;;;;;8.34;54.63;101160.06;5028063;28;45510;-71
2022/04/11 02:56:23;;;;;;;;;5.00;3.00;;;;;8.34;54.63;101150.44;5022915;28;45806;-71
2022/04/11 02:58:49;;;;;;;;;1.00;1.00;;;;;8.34;54.91;101153.06;5024207;28;45489;-71
2022/04/11 03:01:14;;;;;;;;;5.00;2.00;;;;;8.32;54.64;101135.69;5029106;28;45492;-71
2022/04/11 03:03:41;;;;;;;;;3.00;2.00;;;;;8.33;54.87;101129.56;5028021;28;45204;-71
2022/04/11 03:06:07;;;;;;;;;2.25;2.25;;;;;8.32;54.90;101123.47;5031307;28;45483;-71
2022/04/11 03:08:32;;;;;;;;;6.00;3.00;;;;;8.31;54.77;101118.28;5030998;28;45303;-71
2022/04/11 03:10:57;;;;;;;;;2.75;2.25;;;;;8.28;54.64;101121.81;5031189;28;45635;-71
2022/04/11 03:13:23;;;;;;;;;3.50;3.50;;;;;8.27;54.72;101119.25;5034998;28;45394;-71
2022/04/11 03:15:48;;;;;;;;;3.00;2.50;;;;;8.24;54.80;101120.19;5024573;28;46030;-71
2022/04/11 03:18:13;;;;;;;;;2.00;2.00;;;;;8.21;55.32;101111.56;5022634;28;47593;-71
2022/04/11 03:20:38;;;;;;;;;4.50;4.00;;;;;8.20;54.73;101109.84;5028573;28;53968;-71
2022/04/11 03:23:04;;;;;;;;;1.25;1.25;;;;;8.17;55.06;101102.06;5020519;28;45358;-71
2022/04/11 03:25:29;;;;;;;;;2.50;2.50;;;;;8.16;54.77;101097.75;5033977;28;45323;-71
2022/04/11 03:27:54;;;;;;;;;2.00;2.00;;;;;8.15;55.07;101107.38;5029061;28;45318;-71
2022/04/11 03:30:20;;;;;;;;;4.50;2.00;;;;;8.13;55.14;101113.53;5034204;28;45346;-71
2022/04/11 03:32:45;;;;;;;;;2.00;2.00;;;;;8.13;55.15;101110.91;5026288;28;45368;-71
2022/04/11 03:35:10;;;;;;;;;4.50;2.25;;;;;8.11;54.96;101109.19;5024827;28;45976;-71
2022/04/11 03:37:36;;;;;;;;;3.00;3.00;;;;;8.10;55.26;101110.09;5035161;28;45507;-71
2022/04/11 03:40:01;;;;;;;;;3.00;3.00;;;;;8.08;55.01;101109.25;5033292;28;45402;-71
2022/04/11 03:42:27;;;;;;;;;2.25;2.25;;;;;8.09;54.96;101112.72;5030570;28;45253;-71
2022/04/11 03:44:52;;;;;;;;;3.50;3.50;;;;;8.05;54.92;101111.97;5027820;28;46329;-71
2022/04/11 03:47:18;;;;;;;;;6.00;3.00;;;;;8.04;54.90;101109.41;5029814;28;45484;-71
2022/04/11 03:49:43;;;;;;;;;3.50;2.00;;;;;8.02;55.07;101104.19;5022793;28;45485;-71
2022/04/11 03:52:10;;;;;;;;;5.25;2.00;;;;;8.00;55.09;101099.91;5016858;28;45465;-71
2022/04/11 03:54:35;;;;;;;;;4.50;4.50;;;;;7.99;55.01;101093.81;5029750;28;45479;-71
2022/04/11 03:57:01;;;;;;;;;3.00;2.25;;;;;7.98;55.15;101093.84;5024180;28;45429;-71
2022/04/11 03:59:26;;;;;;;;;4.50;2.75;;;;;7.96;55.27;101091.28;5002896;28;45451;-71
2022/04/11 04:01:51;;;;;;;;;3.00;2.50;;;;;7.93;54.98;101077.41;5018712;28;54917;-71
2022/04/11 04:04:17;;;;;;;;;5.00;3.00;;;;;7.92;55.22;101068.69;5018710;28;45507;-71
2022/04/11 04:06:42;;;;;;;;;3.00;3.00;;;;;7.91;54.94;101069.59;5030529;28;45495;-71
2022/04/11 04:09:07;;;;;;;;;3.50;2.50;;;;;7.90;55.18;101069.66;5028132;28;45467;-71
2022/04/11 04:11:33;;;;;;;;;3.00;3.00;;;;;7.88;55.13;101063.59;5027364;28;45357;-71
2022/04/11 04:13:58;;;;;;;;;6.00;3.00;;;;;7.88;55.00;101060.97;5012214;28;47369;-71
2022/04/11 04:16:24;;;;;;;;;3.00;3.00;;;;;7.86;55.40;101063.63;5026983;28;45514;-71
2022/04/11 04:18:49;;;;;;;;;2.25;2.25;;;;;7.85;55.04;101067.16;5018624;28;45464;-71
2022/04/11 04:21:18;;;;;;;;;4.75;1.50;;;;;7.81;55.33;101060.28;5032984;28;45445;-71
2022/04/11 04:23:44;;;;;;;;;1.00;1.00;;;;;7.79;55.22;101060.31;5027037;28;46926;-71
2022/04/11 04:26:09;;;;;;;;;6.25;2.50;;;;;7.77;55.38;101056.88;5021844;28;45633;-71
2022/04/11 04:28:34;;;;;;;;;1.50;1.00;;;;;7.76;55.27;101051.69;5033458;28;45550;-71
2022/04/11 04:31:00;;;;;;;;;3.00;2.00;;;;;7.74;55.17;101053.50;5027008;28;47258;-71
2022/04/11 04:33:25;;;;;;;;;2.25;2.25;;;;;7.73;55.29;101051.78;5028201;28;45692;-71
2022/04/11 04:35:51;;;;;;;;;5.00;3.00;;;;;7.72;55.55;101053.53;5028509;28;45612;-71
2022/04/11 04:38:16;;;;;;;;;2.00;2.00;;;;;7.71;55.27;101046.56;5027817;28;45515;-71
2022/04/11 04:40:41;;;;;;;;;2.50;2.50;;;;;7.70;55.57;101050.09;5029041;28;46754;-71
2022/04/11 04:43:08;;;;;;;;;7.00;2.00;;;;;7.69;55.38;101039.69;5027195;28;46553;-71
2022/04/11 04:45:36;;;;;;;;;4.00;2.75;;;;;7.70;55.38;101038.78;5032544;28;47245;-71
2022/04/11 04:48:01;;;;;;;;;2.50;2.50;;;;;7.68;55.88;101037.97;5033637;28;45499;-71
2022/04/11 04:50:26;;;;;;;;;2.00;2.00;;;;;7.66;55.57;101035.38;5028433;28;45377;-71
2022/04/11 04:52:52;;;;;;;;;2.50;2.50;;;;;7.64;55.72;101031.09;5022075;28;45893;-71
2022/04/11 04:55:17;;;;;;;;;2.00;2.00;;;;;7.63;55.54;101034.63;5016775;28;45985;-71
2022/04/11 04:57:43;;;;;;;;;2.50;2.50;;;;;7.61;55.76;101028.53;5023884;28;45316;-71
2022/04/11 05:00:09;;;;;;;;;1.75;1.75;;;;;7.59;55.56;101039.91;5022609;28;45523;-71
2022/04/11 05:02:38;;;;;;;;;2.00;2.00;;;;;7.58;55.68;101043.44;5029703;28;46007;-71
2022/04/11 05:05:07;;;;;;;;;2.00;2.00;;;;;7.57;55.74;101048.72;5033664;28;45447;-71
2022/04/11 05:07:33;;;;;;;;;2.00;2.00;;;;;7.51;55.87;101048.84;5035544;28;45556;-71
2022/04/11 05:09:59;;;;;;;;;2.75;2.75;;;;;7.56;55.74;101054.81;5016110;28;45350;-71
2022/04/11 05:12:24;;;;;;;;;5.75;5.00;;;;;7.45;56.08;101047.25;5036091;28;48211;-71
2022/04/11 05:14:50;;;;;;;;;5.75;4.50;;;;;7.40;55.99;101040.41;5034028;28;45589;-71
2022/04/11 05:17:15;;;;;;;;;5.75;4.00;;;;;7.45;56.13;101044.63;5032917;28;45303;-70
2022/04/11 05:19:41;;;;;;;;;2.75;2.00;;;;;7.47;55.82;101048.09;5021925;28;45582;-70
2022/04/11 05:22:06;;;;;;;;;7.00;2.75;;;;;7.49;56.20;101038.44;5036864;28;46198;-71
2022/04/11 05:24:32;;;;;;;;;2.00;2.00;;;;;7.53;56.50;101039.22;5026202;28;45612;-71
2022/04/11 05:26:58;;;;;;;;;2.75;2.75;;;;;7.55;56.51;101029.56;5026033;28;45504;-70
2022/04/11 05:29:23;;;;;;;;;3.00;3.00;;;;;7.72;56.46;101050.03;5022226;28;45664;-71
2022/04/11 05:31:48;;;;;;;;;5.50;3.00;;;;;7.77;56.33;101046.41;5024939;28;46117;-70
2022/04/11 05:34:14;;;;;;;;;3.00;3.00;;;;;7.83;56.32;101048.03;5023122;28;45407;-71
2022/04/11 05:36:39;;;;;;;;;6.75;4.00;;;;;7.85;56.16;101052.31;5033131;28;45390;-70
2022/04/11 05:39:04;;;;;;;;;4.00;3.00;;;;;7.93;56.31;101051.22;5032371;28;45460;-71
2022/04/11 05:41:30;;;;;;;;;5.00;5.00;;;;;7.97;56.35;101045.88;5027842;28;45537;-71
2022/04/11 05:43:55;;;;;;;;;3.00;3.00;;;;;8.02;55.92;101041.38;5032480;28;45345;-71
2022/04/11 05:46:20;;;;;;;;;4.50;4.50;;;;;8.08;56.21;101043.81;5021532;28;45660;-71
2022/04/11 05:48:46;;;;;;;;;4.00;4.00;;;;;8.14;55.91;101034.09;5022262;28;45465;-70
2022/04/11 05:51:11;;;;;;;;;4.50;3.00;;;;;8.19;56.07;101035.66;5006765;28;46436;-71
2022/04/11 05:53:37;;;;;;;;;5.00;4.50;;;;;8.24;56.15;101031.16;5025414;28;45436;-71
2022/04/11 05:56:02;;;;;;;;;7.00;4.00;;;;;8.29;55.71;101031.88;5029750;28;45530;-71
2022/04/11 05:58:27;;;;;;;;;6.75;6.00;;;;;8.35;55.96;101038.69;5035629;28;45527;-71
2022/04/11 06:00:53;;;;;;;;;6.50;5.25;;;;;8.40;55.54;101042.09;5030501;28;45751;-71
2022/04/11 06:03:18;;;;;;;;;7.00;7.00;;;;;8.46;55.57;101035.84;5024860;28;45801;-70
2022/04/11 06:05:43;;;;;;;;;7.00;7.00;;;;;8.52;55.45;101046.97;5021543;28;45416;-71
2022/04/11 06:08:09;;;;;;;;;6.25;6.00;;;;;8.59;55.64;101045.03;5027726;28;45547;-71
2022/04/11 06:10:36;;;;;;;;;7.00;5.00;;;;;8.68;55.15;101039.53;5028555;28;46038;-71
2022/04/11 06:13:02;;;;;;;;;5.75;5.00;;;;;8.77;55.42;101039.25;5033303;28;45890;-70
2022/04/11 06:15:27;;;;;;;;;6.50;5.75;;;;;8.85;55.60;101039.84;5035417;28;45480;-71
2022/04/11 06:17:53;;;;;;;;;8.75;7.25;;;;;8.94;55.35;101037.88;5034693;28;45425;-71
2022/04/11 06:20:18;;;;;;;;;7.25;7.25;;;;;9.06;55.45;101040.94;5018479;28;48107;-71
2022/04/11 06:22:45;;;;;;;;;10.75;9.25;;;;;9.16;55.23;101028.41;5038770;28;45812;-71
2022/04/11 06:25:10;;;;;;;;;8.00;8.00;;;;;9.29;55.46;101034.09;5035639;28;45358;-71
2022/04/11 06:27:37;;;;;;;;;9.50;7.50;;;;;9.39;54.91;101036.38;5032802;28;45618;-71
2022/04/11 06:30:04;;;;;;;;;8.00;6.50;;;;;9.51;54.39;101035.13;5024803;28;46060;-71
2022/04/11 06:32:32;;;;;;;;;7.00;5.25;;;;;9.66;54.29;101036.38;5029892;28;45899;-71
2022/04/11 06:34:58;;;;;;;;;2.75;2.75;;;;;9.81;53.93;101041.06;5038231;28;45546;-71
2022/04/11 06:37:24;;;;;;;;;3.00;3.00;;;;;9.93;53.41;101055.53;5035224;28;45370;-71
2022/04/11 06:39:53;;;;;;;;;6.25;5.00;;;;;10.01;52.97;101045.59;5031566;28;47177;-71
2022/04/11 06:42:19;;;;;;;;;7.00;4.00;;;;;10.08;53.12;101034.00;5034575;28;45539;-71
2022/04/11 06:44:44;;;;;;;;;4.50;3.00;;;;;10.15;52.99;101034.63;5016753;28;45560;-70
2022/04/11 06:47:09;;;;;;;;;7.00;3.75;;;;;10.22;52.78;101028.22;5033535;28;45516;-71
2022/04/11 06:49:38;;;;;;;;;5.00;5.00;;;;;10.32;52.69;101013.88;5032858;28;46023;-71
2022/04/11 06:52:05;;;;;;;;;7.00;4.50;;;;;10.42;52.13;101015.25;5018844;28;45875;-72
2022/04/11 06:54:31;;;;;;;;;5.00;3.50;;;;;10.53;52.38;101006.94;5025122;28;45584;-72
2022/04/11 06:56:57;;;;;;;;;7.75;6.00;;;;;10.65;52.26;101008.25;5030780;28;46847;-71
2022/04/11 06:59:22;;;;;;;;;6.50;3.00;;;;;10.76;51.95;101010.47;5017418;28;47451;-73
2022/04/11 07:01:47;;;;;;;;;6.00;6.00;;;;;10.86;51.87;101006.56;5032032;28;45567;-73
2022/04/11 07:04:13;;;;;;;;;4.50;4.50;;;;;11.06;51.31;101003.09;5027856;28;45518;-71
2022/04/11 07:06:38;;;;;;;;;3.50;3.50;;;;;11.25;51.00;100988.28;5030371;28;45467;-72
2022/04/11 07:09:03;;;;;;;;;1.75;0.00;;;;;11.45;50.99;100992.72;5032627;28;45493;-72
2022/04/11 07:11:31;;;;;;;;;3.00;3.00;;;;;11.63;50.80;100993.69;5032183;28;48743;-70
2022/04/11 07:13:57;;;;;;;;;2.50;2.50;;;;;11.78;50.54;100993.03;5025010;28;45488;-70
2022/04/11 07:16:24;;;;;;;;;6.00;3.50;;;;;11.89;50.28;100989.97;5034568;28;45556;-72
2022/04/11 07:18:49;;;;;;;;;3.75;3.00;;;;;11.96;49.55;100983.50;5034916;28;46128;-72
2022/04/11 07:21:15;;;;;;;;;4.00;3.25;;;;;12.02;49.52;100975.34;5033529;28;45504;-70
2022/04/11 07:23:40;;;;;;;;;3.25;2.25;;;;;12.09;49.49;100971.50;5034821;28;45370;-70
2022/04/11 07:26:05;;;;;;;;;2.00;2.00;;;;;12.11;48.96;100974.94;5034036;28;45907;-71
2022/04/11 07:28:31;;;;;;;;;2.25;2.25;;;;;12.16;49.28;100970.31;5033323;28;46100;-71
2022/04/11 07:30:56;;;;;;;;;4.00;3.25;;;;;12.31;49.17;100965.22;5034709;28;45833;-71
2022/04/11 07:33:21;;;;;;;;;3.25;3.25;;;;;12.42;48.89;100955.88;5034798;28;45482;-71
2022/04/11 07:35:47;;;;;;;;;3.00;3.00;;;;;12.53;48.47;100958.91;5033383;28;45485;-71
2022/04/11 07:38:12;;;;;;;;;2.50;2.50;;;;;12.68;48.92;100957.28;5028714;28;46911;-72
2022/04/11 07:40:38;;;;;;;;;4.75;4.00;;;;;12.83;48.24;100953.06;5022816;28;45501;-71
2022/04/11 07:43:03;;;;;;;;;3.00;3.00;;;;;12.89;48.20;100955.38;5028310;28;45507;-70
2022/04/11 07:45:28;;;;;;;;;3.75;3.00;;;;;12.95;47.79;100946.34;5029360;28;48764;-70
2022/04/11 07:47:54;;;;;;;;;4.00;4.00;;;;;13.04;47.63;100945.88;5025632;28;45371;-70
2022/04/11 07:50:19;;;;;;;;;4.00;3.00;;;;;13.23;47.76;100951.13;5025408;28;45554;-71
2022/04/11 07:52:44;;;;;;;;;5.50;3.75;;;;;13.38;47.64;100950.34;5029619;28;45487;-71
2022/04/11 07:55:12;;;;;;;;;2.75;2.50;;;;;13.58;47.48;100944.03;5021743;28;45354;-71
2022/04/11 07:57:38;;;;;;;;;6.00;3.50;;;;;13.83;46.91;100946.22;5032533;28;46266;-71
2022/04/11 08:00:06;;;;;;;;;4.75;4.00;;;;;14.04;46.95;100954.78;5029823;28;45482;-71
2022/04/11 08:02:31;;;;;;;;;3.25;3.25;;;;;14.15;46.30;100936.59;5033536;28;47869;-71
2022/04/11 08:05:01;;;;;;;;;4.00;3.00;;;;;14.21;45.84;100932.75;5031361;28;45512;-72
2022/04/11 08:07:27;;;;;;;;;12.00;10.00;;;;;14.34;46.19;100933.78;5030868;28;45523;-72
2022/04/11 08:09:52;;;;;;;;;4.00;3.00;;;;;14.61;46.21;100934.88;5022131;28;45789;-72
2022/04/11 08:12:18;;;;;;;;;4.75;3.00;;;;;14.92;45.52;100935.78;5028282;28;45463;-71
2022/04/11 08:14:43;;;;;;;;;5.25;5.25;;;;;15.18;45.17;100938.72;5030870;28;45548;-71
2022/04/11 08:17:09;;;;;;;;;4.25;3.75;;;;;15.36;45.57;100933.19;5032670;28;51476;-71
2022/04/11 08:19:34;;;;;;;;;5.50;3.25;;;;;15.58;44.63;100929.25;5032941;28;45572;-71
2022/04/11 08:21:59;;;;;;;;;5.00;4.00;;;;;15.73;44.39;100924.84;5033142;28;45526;-71
2022/04/11 08:24:25;;;;;;;;;5.25;4.00;;;;;16.01;44.02;100916.88;5031581;28;46491;-71
2022/04/11 08:26:50;;;;;;;;;3.00;3.00;;;;;16.48;44.43;100922.75;5030936;28;46520;-71
2022/04/11 08:29:17;;;;;;;;;4.25;3.25;;;;;17.13;44.31;100923.75;5031582;28;60902;-71
2022/04/11 08:31:43;;;;;;;;;5.50;3.75;;;;;17.88;42.33;100923.91;5030795;28;45534;-71
2022/04/11 08:34:08;;;;;;;;;4.00;3.25;;;;;18.56;42.01;100916.41;5028859;28;45662;-70
2022/04/11 08:36:33;;;;;;;;;3.00;3.00;;;;;19.16;41.86;100915.47;5032390;28;46230;-72
2022/04/11 08:38:59;;;;;;;;;46.50;37.00;;;;;20.13;40.86;100911.47;5030855;28;45746;-72
2022/04/11 08:41:31;;;;;;;;;5.25;5.25;;;;;20.85;40.17;100904.66;5019711;28;45521;-75
2022/04/11 08:43:56;;;;;;;;;4.75;3.50;;;;;21.68;38.25;100902.13;5038276;28;45509;-73
2022/04/11 08:46:23;;;;;;;;;6.00;5.00;;;;;23.70;38.28;100897.97;5044198;28;53512;-72
2022/04/11 08:48:48;;;;;;;;;3.25;3.25;;;;;26.11;36.33;100899.66;5039573;28;45498;-74
2022/04/11 08:51:14;;;;;;;;;5.75;4.75;;;;;27.83;33.76;100896.03;5038548;28;50861;-73
2022/04/11 08:53:39;;;;;;;;;7.75;5.25;;;;;29.21;32.89;100884.53;5035181;28;45632;-73
2022/04/11 08:56:04;;;;;;;;;5.00;5.00;;;;;31.17;31.15;100877.38;5036754;28;55407;-73
2022/04/11 08:58:30;;;;;;;;;5.00;3.50;;;;;32.81;30.77;100885.66;5050119;28;45480;-74
2022/04/11 09:00:55;;;;;;;;;6.00;4.75;;;;;34.16;30.12;100873.31;5038438;28;45513;-73
2022/04/11 09:03:21;;;;;;;;;4.00;4.00;;;;;35.01;27.91;100874.66;5041524;28;45688;-74
2022/04/11 09:06:04;;;;;;;;;4.25;3.00;;;;;35.60;25.66;100875.16;5033211;28;47106;-74
2022/04/11 09:08:51;;;;;;;;;6.00;4.00;;;;;36.59;24.60;100873.88;5031819;28;45503;-72
2022/04/11 09:11:36;;;;;;;;;4.75;3.00;;;;;37.83;24.29;100865.59;5036419;28;45511;-71
2022/04/11 09:14:06;;;;;;;;;4.00;3.00;;;;;39.43;22.62;100865.41;5037526;28;45956;-72
2022/04/11 09:16:51;;;;;;;;;3.50;3.25;;;;;40.67;22.33;100866.63;5035272;28;45416;-74
2022/04/11 09:19:24;;;;;;;;;4.00;4.00;;;;;41.48;20.22;100879.34;5035497;28;45752;-74
2022/04/11 09:21:54;;;;;;;;;6.25;5.00;;;;;41.65;19.49;100868.94;5039592;28;45402;-74
2022/04/11 09:24:22;;;;;;;;;5.00;4.50;;;;;41.69;19.85;100870.88;5037031;28;45910;-73
2022/04/11 09:26:51;;;;;;;;;6.50;3.75;;;;;41.85;18.85;100870.97;5038277;28;46203;-73
2022/04/11 09:29:17;;;;;;;;;5.00;4.00;;;;;41.28;18.21;100868.97;5038369;28;45543;-73
2022/04/11 09:31:43;;;;;;;;;2.75;2.75;;;;;40.22;18.82;100875.22;5049896;28;45428;-73
2022/04/11 09:34:19;;;;;;;;;2.50;2.50;;;;;39.15;18.80;100863.59;5034906;28;45439;-72
2022/04/11 09:36:46;;;;;;;;;3.50;3.00;;;;;38.12;18.88;100858.25;5037105;28;45674;-71
2022/04/11 09:39:12;;;;;;;;;1.00;1.00;;;;;36.92;19.35;100853.38;5038268;28;45413;-71
2022/04/11 09:41:43;;;;;;;;;1.00;1.00;;;;;35.57;19.44;100848.28;5036237;28;48371;-73
2022/04/11 09:44:20;;;;;;;;;5.50;4.75;;;;;34.34;20.36;100829.75;5043157;28;45691;-74
2022/04/11 09:46:46;;;;;;;;;2.50;2.50;;;;;33.56;21.21;100837.22;5047487;28;45961;-73
2022/04/11 09:49:12;;;;;;;;;12.75;11.00;;;;;32.95;21.50;100828.31;5031476;28;45927;-73
2022/04/11 09:52:03;;;;;;;;;2.50;2.50;;;;;32.78;22.19;100840.63;5043712;28;45516;-74
2022/04/11 09:54:29;;;;;;;;;3.75;3.00;;;;;32.62;21.66;100830.16;5048917;28;45595;-73
2022/04/11 09:56:58;;;;;;;;;2.00;1.00;;;;;32.29;21.66;100835.53;5039217;28;47044;-73
2022/04/11 09:59:23;;;;;;;;;2.75;2.75;;;;;32.02;22.52;100832.75;5040243;28;45687;-74
2022/04/11 10:01:51;;;;;;;;;3.00;3.00;;;;;31.66;22.45;100827.53;5038969;28;46122;-73
2022/04/11 10:04:21;;;;;;;;;2.00;2.00;;;;;31.29;21.87;100821.50;5037175;28;45352;-74
2022/04/11 10:06:48;;;;;;;;;2.00;2.00;;;;;30.84;22.31;100812.78;5037954;28;46416;-73
2022/04/11 10:09:14;;;;;;;;;3.00;3.00;;;;;30.61;23.18;100821.13;5039768;28;48204;-72
2022/04/11 10:11:44;;;;;;;;;3.25;2.25;;;;;30.68;23.14;100824.72;5037815;28;45401;-72
2022/04/11 10:14:17;;;;;;;;;3.00;3.00;;;;;30.88;23.47;100824.94;5040484;28;45465;-73
2022/04/11 10:16:43;;;;;;;;;3.25;3.25;;;;;30.94;23.33;100817.88;5036889;28;46421;-70
2022/04/11 10:19:11;;;;;;;;;3.00;2.00;;;;;31.11;23.17;100805.66;5040442;28;45469;-75
2022/04/11 10:21:40;;;;;;;;;2.75;2.00;;;;;30.88;22.96;100797.78;5041608;28;45681;-71
2022/04/11 10:24:13;;;;;;;;;4.00;2.50;;;;;30.51;23.21;100809.75;5046508;28;45295;-72
2022/04/11 10:26:46;;;;;;;;;3.00;2.50;;;;;29.86;23.50;100810.69;5034068;28;47182;-73
2022/04/11 10:29:37;;;;;;;;;2.00;2.00;;;;;29.18;23.22;100820.78;5029870;28;45822;-72
2022/04/11 10:32:07;;;;;;;;;1.75;1.75;;;;;28.51;23.81;100815.31;5032932;28;45421;-73
2022/04/11 10:34:46;;;;;;;;;2.00;2.00;;;;;28.11;24.08;100814.53;5035468;28;45464;-72
2022/04/11 10:37:12;;;;;;;;;1.00;1.00;;;;;27.86;24.58;100805.72;5032486;28;46096;-72
2022/04/11 10:39:39;;;;;;;;;2.00;2.00;;;;;27.65;24.50;100808.13;5035454;28;45537;-72
2022/04/11 10:42:12;;;;;;;;;2.00;2.00;;;;;27.39;24.96;100822.75;5029218;28;45512;-71
2022/04/11 10:44:58;;;;;;;;;4.75;2.00;;;;;27.22;25.08;100799.53;5032156;28;45518;-71
2022/04/11 10:47:26;;;;;;;;;1.00;1.00;;;;;26.98;25.46;100803.06;5033968;28;47096;-71
2022/04/11 10:49:53;;;;;;;;;2.00;1.75;;;;;26.69;25.09;100799.06;5042469;28;45521;-71
2022/04/11 10:52:33;;;;;;;;;3.00;3.00;;;;;26.36;25.64;100783.84;5032998;28;45554;-72
2022/04/11 10:55:10;;;;;;;;;1.00;1.00;;;;;26.10;26.82;100773.22;5031236;28;45525;-71
2022/04/11 10:57:37;;;;;;;;;2.00;2.00;;;;;25.98;26.01;100780.78;5036359;28;46419;-72
2022/04/11 11:00:06;;;;;;;;;4.00;3.00;;;;;25.74;26.87;100779.72;5035836;28;45540;-71
2022/04/11 11:02:52;;;;;;;;;1.75;1.50;;;;;25.43;26.45;100776.69;5026941;28;45456;-72
2022/04/11 11:05:38;;;;;;;;;2.75;2.75;;;;;25.30;27.33;100778.97;5026531;28;45432;-71
2022/04/11 11:08:12;;;;;;;;;2.50;2.50;;;;;25.09;26.80;100771.28;5033057;28;46177;-72
2022/04/11 11:10:52;;;;;;;;;2.75;2.75;;;;;24.88;27.52;100773.47;5031557;28;45768;-75
2022/04/11 11:13:39;;;;;;;;;25.00;22.75;;;;;24.70;27.36;100770.84;5031108;28;45555;-74
2022/04/11 11:16:07;;;;;;;;;38.75;34.00;;;;;24.52;28.06;100759.25;5029759;28;45605;-73
2022/04/11 11:18:50;;;;;;;;;3.00;3.00;;;;;24.31;28.09;100757.72;5032657;28;45641;-73
2022/04/11 11:21:28;;;;;;;;;3.00;1.25;;;;;24.20;28.30;100766.00;5029348;28;45696;-74
2022/04/11 11:24:02;;;;;;;;;2.50;1.00;;;;;24.09;28.11;100755.50;5031903;28;45271;-74
2022/04/11 11:26:37;;;;;;;;;4.25;2.00;;;;;23.92;29.00;100752.66;5027787;28;45872;-73
2022/04/11 11:29:13;;;;;;;;;3.00;3.00;;;;;23.87;29.04;100759.47;5030673;28;46099;-73